• Join FlightAware (Why Join?)
  • Login
  • US Flag 
06:48AM EST


 

Airport Tracker/Info


-or-


 

Live Flight TrackerFlight Track Log ✈ SWA1719 ✈ 25-Apr-2013 ✈ KHOU - KTPA

Flight Track Log - Related Links

Times and Time Zones

All times are in EDT time to prevent confusion due to time zone crossing. See the SWA1719 flight status page for this flight to view local times or setup timezone preferences in your user account.

Time Position Orientation Groundspeed Altitude Reporting Facility
EDT Latitude Longitude Course Direction KTS MPH feet Rate Location/Type
11:48AM 29.6333 -95.2653 146° Southeast 146 168 900  Level Houston Center
11:49AM 29.6061 -95.2444 146° Southeast 170 196 2,300 1,800 Climbing Houston Center
11:50AM 29.5586 -95.2108 148° Southeast 196 226 4,100 2,100 Climbing Houston Center
11:51AM 29.5025 -95.1597 142° Southeast 261 300 6,700 2,460 Climbing Houston Center
11:52AM 29.4872 -95.0794 102° East 282 325 9,300 2,520 Climbing Houston Center
11:53AM 29.5289 -94.9717 66° East 314 361 12,000 2,820 Climbing Houston Center
11:54AM 29.5606 -94.8644 71° East 352 405 15,200 2,100 Climbing Houston Center
11:55AM 29.5942 -94.7550 71° East 365 420 16,400 1,680 Climbing Houston Center
11:56AM 29.6286 -94.6406 71° East 375 432 18,700 2,520 Climbing Houston Center
11:57AM 29.6744 -94.4961 70° East 397 457 21,700 2,640 Climbing Houston Center
11:58AM 29.7128 -94.3689 71° East 416 479 24,200 2,220 Climbing Houston Center
11:59AM 29.7092 -94.2300 92° East 434 499 26,400 1,980 Climbing Houston Center
12:00PM 29.6914 -94.0822 98° East 438 504 28,400 1,620 Climbing Houston Center
12:01PM 29.6864 -93.9336 92° East 465 535 29,800 1,320 Climbing Houston Center
12:02PM 29.6844 -93.7811 91° East 478 550 31,200 1,200 Climbing Houston Center
12:03PM 29.6828 -93.6247 91° East 487 560 32,300 1,500 Climbing Houston Center
12:04PM 29.6806 -93.4275 91° East 514 592 34,400 1,740 Climbing Houston Center
12:05PM 29.6775 -93.2681 91° East 507 583 36,000 1,440 Climbing Houston Center
12:06PM 29.6753 -93.1089 91° East 503 579 37,400 1,140 Climbing Houston Center
12:07PM 29.6736 -92.9500 91° East 502 578 38,400 720 Climbing Houston Center
12:08PM 29.6714 -92.7886 91° East 507 583 39,000 240 Climbing Houston Center
12:09PM 29.6669 -92.5950 91° East 507 583 39,000  Level Houston Center
12:10PM 29.6644 -92.4344 91° East 505 581 39,000  Level Houston Center
12:12PM 29.6431 -92.2753 99° East 507 583 39,000  Level Houston Center
12:13PM 29.6106 -92.1183 103° East 506 582 39,000  Level Houston Center
12:14PM 29.5775 -91.9606 104° East 509 586 39,000  Level Houston Center
12:15PM 29.5453 -91.8044 103° East 505 581 39,000  Level Houston Center
12:16PM 29.5053 -91.6181 104° East 510 587 39,000  Level Houston Center
12:17PM 29.4722 -91.4619 104° East 506 582 39,000  Level Houston Center
12:18PM 29.4397 -91.3044 103° East 508 585 39,000  Level Houston Center
12:19PM 29.4050 -91.1469 104° East 510 587 39,000  Level Houston Center
12:20PM 29.3717 -90.9903 104° East 510 587 39,000  Level Houston Center
12:21PM 29.3300 -90.8008 104° East 512 589 39,000  Level Houston Center
12:22PM 29.2956 -90.6433 104° East 513 590 39,000  Level Houston Center
12:23PM 29.2600 -90.4847 104° East 516 594 39,000  Level Houston Center
12:24PM 29.2247 -90.3247 104° East 519 597 39,000  Level Houston Center
12:25PM 29.1889 -90.1661 104° East 520 598 39,000  Level Houston Center
12:26PM 29.1483 -89.9733 103° East 522 601 39,000  Level Houston Center
12:27PM 29.1156 -89.8114 103° East 526 605 39,000  Level Houston Center
12:28PM 29.0822 -89.6517 103° East 521 600 39,000  Level Houston Center
12:29PM 29.0489 -89.4903 103° East 525 604 39,000  Level Houston Center
12:30PM 29.0164 -89.3294 103° East 523 602 39,000  Level Houston Center
12:31PM 28.9761 -89.1375 103° East 520 598 39,000  Level Houston Center
12:32PM 28.9411 -88.9758 104° East 526 605 39,000  Level Houston Center
12:33PM 28.9072 -88.8147 103° East 525 604 39,000  Level Houston Center
12:34PM 28.8714 -88.6531 104° East 526 605 39,000  Level Houston Center
12:35PM 28.8264 -88.4956 108° East 526 605 39,000  Level Houston Center
12:36PM 28.7742 -88.3083 108° East 521 600 39,000  Level Houston Center
12:37PM 28.7303 -88.1506 108° East 522 601 39,000  Level Houston Center
12:38PM 28.6839 -87.9842 108° East 527 606 39,000  Level Houston Center
12:39PM 28.6392 -87.8256 108° East 527 606 39,000  Level Houston Center
12:41PM 28.5944 -87.6678 108° East 525 604 39,000  Level Houston Center
12:41PM 28.5586 -87.5339 107° East 513 590 39,000  Level Jacksonville Center
12:42PM 28.5119 -87.3761 109° East 520 598 39,000  Level Jacksonville Center
12:43PM 28.4672 -87.2206 108° East 520 598 39,000  Level Jacksonville Center
12:44PM 28.4203 -87.0628 109° East 520 598 39,000  Level Jacksonville Center
12:45PM 28.3694 -86.8886 108° East 527 606 39,000  Level Jacksonville Center
12:46PM 28.3222 -86.7311 109° East 527 606 39,000  Level Jacksonville Center
12:47PM 28.2767 -86.5739 108° East 515 593 39,000  Level Jacksonville Center
12:48PM 28.2308 -86.4192 109° East 526 605 39,000  Level Jacksonville Center
12:49PM 28.1853 -86.2575 108° East 526 605 39,000  Level Jacksonville Center
12:50PM 28.1392 -86.1006 108° East 526 605 39,000  Level Jacksonville Center
12:51PM 28.0886 -85.9436 110° East 531 611 39,000  Level Jacksonville Center
12:52PM 28.0422 -85.7872 109° East 525 604 39,000 -960 Level Jacksonville Center
12:55PM 27.9433 -85.4525 108° East 530 610 36,100 -1,800 Descending Miami Center
12:56PM 27.8942 -85.2964 110° East 525 604 33,400 -1,560 Descending Miami Center
12:57PM 27.8758 -85.1450 98° East 509 586 33,000 -240 Descending Miami Center
12:58PM 27.8550 -84.9981 99° East 479 551 33,000 -600 Level Miami Center
12:59PM 27.8489 -84.8497 93° East 485 558 31,900 -1,140 Descending Miami Center
01:00PM 27.8586 -84.7122 85° East 469 540 30,800 -1,020 Descending Miami Center
01:01PM 27.8658 -84.5767 87° East 443 510 29,900 -900 Descending Miami Center
01:02PM 27.8708 -84.4433 88° East 427 491 29,000 -1,440 Descending Miami Center
01:03PM 27.8819 -84.3128 84° East 422 486 27,100 -1,920 Descending Miami Center
01:04PM 27.8822 -84.1836 90° East 417 480 25,200 -1,860 Descending Miami Center
01:05PM 27.8864 -84.0597 88° East 406 467 23,400 -1,800 Descending Miami Center
01:06PM 27.8906 -83.9378 88° East 396 456 21,700 -1,740 Descending Miami Center
01:07PM 27.8922 -83.8183 89° East 391 450 20,000 -1,680 Descending Miami Center
01:08PM 27.8975 -83.7061 87° East 374 430 18,400 -1,620 Descending Miami Center
01:09PM 27.8989 -83.5911 89° East 364 419 16,800 -1,740 Descending Miami Center
01:10PM 27.9039 -83.4786 87° East 359 413 15,000 -1,800 Descending Miami Center
01:11PM 27.9069 -83.3686 88° East 359 413 13,200 -1,800 Descending Miami Center
01:12PM 27.9097 -83.2631 88° East 348 400 11,500 -1,620 Descending Miami Center
01:13PM 27.9161 -83.1647 86° East 332 382 10,000 -780 Descending Miami Center
01:14PM 27.9325 -83.0764 78° East 304 350 10,000  Level Miami Center
01:15PM 27.9464 -82.9903 80° East 285 328 10,000  Level Miami Center
01:16PM 27.9647 -82.9069 76° East 274 315 10,000 -660 Level Miami Center
01:17PM 27.9833 -82.8167 77° East 280 322 8,800 -1,260 Descending Tampa TRACON
01:17PM 28.0000 -82.7500 74° East 276 318 7,800 -1,320 Descending Tampa TRACON
01:18PM 28.0333 -82.6667 66° East 263 303 6,500 -900 Descending Tampa TRACON
01:19PM 28.0833 -82.6500 16° North 243 280 6,000 -240 Descending Tampa TRACON
01:21PM 28.1500 -82.6167 24° Northeast 216 249 6,000 -480 Level Tampa TRACON
01:21PM 28.2000 -82.5833 30° Northeast 212 244 5,000 -960 Descending Tampa TRACON
01:22PM 28.1667 -82.5333 127° Southeast 214 246 4,200 -960 Descending Tampa TRACON
01:23PM 28.1167 -82.5167 164° South 201 231 3,100 -1,200 Descending Tampa TRACON
01:24PM 28.0667 -82.5333 196° South 177 204 1,900 -1,200 Descending Tampa TRACON
01:26PM 28.0167 -82.5333 180° South 158 182 700 -1,140 Descending Tampa TRACON
01:28PM 27.9755 -82.5332 180° South  Level Estimated
01:35PM 27.9755 -82.5332 19° North  Level Estimated
01:36PM 27.9755 -82.5332 19° North  Level Estimated